Hlavní strana
METAR-TAF:

METAR-TAF

Letiště :

Kramfors, Švédsko

zeměpisná šířka: 63-03N, zeměpisná délka: 017-46E, výška: 10 m

Aktuální stav počasí

Zpráva byla vytvořena před 24 minutami, v 22:20 UTC
Západoseverozápadní vítr 6 kt
Teplota 5°C
Vlhkost vzduchu 70%
Tlak 1021 hPa
Viditelnost 10 km a více

METAR: ESNK 282220Z AUTO 29006KT 9999 NCD 05/M00 Q1021

Čas: 23:44 (22:44 UTC)


TAF: chybějící

Stav a předpovědi počasí z více než 4 000 letišť (zprávy METAR a TAF).

Červené a žluté tečky na mapě představují dostupné meteorologické stanice.

Když kurzor umístíte na tečku, zobrazí se název stanice.

Pak kliknutím zobrazíte stav a předpověď počasí.

Chcete-li změnit mapu, kliknutím na zelené tlačítko se znaménkem +mapu přiblížíte, kliknutím na zelené tlačítko se znaménkem – mapu oddálíte a kliknutím na zelené šipky přejdete na sousední mapy.


METAR-TAF: